createdAt,value
2023-02-02T00:01:15.933Z,9.88
2023-02-02T00:04:02.092Z,9.30
2023-02-02T00:06:49.440Z,9.98
2023-02-02T00:09:35.756Z,9.70
2023-02-02T00:12:21.954Z,9.70
2023-02-02T00:15:08.301Z,11.20
2023-02-02T00:17:54.758Z,10.85
2023-02-02T00:20:41.023Z,12.10
2023-02-02T00:23:27.377Z,10.07
2023-02-02T00:26:13.494Z,10.27
2023-02-02T00:28:59.894Z,10.88
2023-02-02T00:31:46.344Z,10.00
2023-02-02T00:34:32.741Z,9.23
2023-02-02T00:37:18.959Z,9.18
2023-02-02T00:40:05.319Z,9.30
2023-02-02T00:42:51.851Z,9.68
2023-02-02T00:45:38.637Z,9.20
2023-02-02T00:48:26.099Z,9.38
2023-02-02T00:51:12.754Z,10.13
2023-02-02T00:53:58.825Z,9.20
2023-02-02T00:56:44.965Z,10.23
2023-02-02T00:59:31.404Z,9.45
2023-02-02T01:02:17.741Z,9.10
2023-02-02T01:05:04.677Z,9.25
2023-02-02T01:07:52.640Z,9.25
2023-02-02T01:10:38.840Z,9.30
2023-02-02T01:13:24.995Z,9.55
2023-02-02T01:16:11.725Z,8.82
2023-02-02T01:18:59.059Z,8.88
2023-02-02T01:21:45.503Z,9.02
2023-02-02T01:24:31.868Z,8.80
2023-02-02T01:27:18.057Z,9.00
2023-02-02T01:30:04.488Z,9.23
2023-02-02T01:32:50.756Z,9.07
2023-02-02T01:35:36.796Z,8.35
2023-02-02T01:38:23.573Z,8.88
2023-02-02T01:41:13.060Z,8.80
2023-02-02T01:44:00.683Z,8.35
2023-02-02T01:46:46.876Z,9.20
2023-02-02T01:49:33.197Z,8.40
2023-02-02T01:52:20.735Z,8.65
2023-02-02T01:55:08.967Z,8.35
2023-02-02T01:57:58.265Z,7.07
2023-02-02T02:00:46.959Z,6.85
2023-02-02T02:03:39.205Z,8.50
2023-02-02T02:06:26.462Z,9.50
2023-02-02T02:09:12.811Z,8.52
2023-02-02T02:11:59.243Z,8.52
2023-02-02T02:15:05.654Z,9.63
2023-02-02T02:18:02.240Z,9.52
2023-02-02T02:21:14.856Z,9.68
2023-02-02T02:24:39.201Z,9.48
2023-02-02T02:27:31.777Z,9.55
2023-02-02T02:30:18.405Z,8.73
2023-02-02T02:33:06.966Z,9.07
2023-02-02T02:36:08.979Z,8.73
2023-02-02T02:39:16.816Z,8.27
2023-02-02T02:42:09.314Z,8.30
2023-02-02T02:44:57.284Z,9.15
2023-02-02T02:47:44.210Z,9.75
2023-02-02T02:50:30.435Z,9.73
2023-02-02T02:53:19.004Z,9.98
2023-02-02T02:56:12.070Z,9.00
2023-02-02T02:59:11.777Z,9.68
2023-02-02T03:01:57.796Z,8.90
2023-02-02T03:04:56.716Z,9.80
2023-02-02T03:07:45.650Z,9.52
2023-02-02T03:10:32.559Z,8.70
2023-02-02T03:13:19.102Z,8.65
2023-02-02T03:16:05.922Z,6.63
2023-02-02T03:18:52.983Z,6.45
2023-02-02T03:21:39.205Z,6.00
2023-02-02T03:24:25.344Z,5.53
2023-02-02T03:27:11.944Z,6.35
2023-02-02T03:29:58.843Z,5.10
2023-02-02T03:32:45.474Z,4.78
2023-02-02T03:35:32.439Z,5.28
2023-02-02T03:38:18.667Z,4.13
2023-02-02T03:41:06.176Z,4.40
2023-02-02T03:43:53.320Z,4.10
2023-02-02T03:46:39.564Z,4.15
2023-02-02T03:49:25.781Z,4.63
2023-02-02T03:52:11.999Z,4.40
2023-02-02T03:54:58.202Z,4.88
2023-02-02T03:57:44.398Z,5.15
2023-02-02T04:00:30.689Z,5.28
2023-02-02T04:03:16.636Z,5.03
2023-02-02T04:06:02.967Z,5.30
2023-02-02T04:08:49.360Z,5.70
2023-02-02T04:11:35.551Z,5.53
2023-02-02T04:14:21.796Z,5.70
2023-02-02T04:17:08.040Z,5.80
2023-02-02T04:19:58.258Z,6.22
2023-02-02T04:22:44.834Z,6.57
2023-02-02T04:25:30.979Z,6.85
2023-02-02T04:28:17.029Z,7.22
2023-02-02T04:31:03.214Z,7.10
2023-02-02T04:33:49.289Z,7.50
2023-02-02T04:36:35.414Z,7.20
2023-02-02T04:39:21.969Z,7.75
2023-02-02T04:42:08.026Z,7.35
2023-02-02T04:44:53.981Z,7.47
2023-02-02T04:47:40.300Z,7.10
2023-02-02T04:50:26.692Z,6.25
2023-02-02T04:53:13.073Z,6.28
2023-02-02T04:55:59.672Z,6.82
2023-02-02T04:58:45.921Z,5.72
2023-02-02T05:01:32.265Z,6.10
2023-02-02T05:04:18.735Z,6.10
2023-02-02T05:07:05.117Z,5.95
2023-02-02T05:09:51.252Z,6.40
2023-02-02T05:12:37.464Z,5.38
2023-02-02T05:15:24.083Z,6.25
2023-02-02T05:18:10.471Z,5.88
2023-02-02T05:20:56.507Z,6.05
2023-02-02T05:23:42.525Z,5.38
2023-02-02T05:26:28.980Z,5.80
2023-02-02T05:29:15.511Z,6.20
2023-02-02T05:32:01.751Z,6.45
2023-02-02T05:34:48.031Z,5.20
2023-02-02T05:37:33.962Z,5.88
2023-02-02T05:40:20.436Z,6.22
2023-02-02T05:43:07.148Z,6.00
2023-02-02T05:45:54.314Z,6.30
2023-02-02T05:48:40.470Z,5.97
2023-02-02T05:51:29.480Z,6.00
2023-02-02T05:54:19.458Z,6.07
2023-02-02T05:57:05.771Z,5.60
2023-02-02T05:59:52.024Z,5.80
2023-02-02T06:02:38.230Z,5.72
2023-02-02T06:05:24.848Z,5.15
2023-02-02T06:08:11.963Z,5.70
2023-02-02T06:10:58.149Z,5.25
2023-02-02T06:13:46.059Z,5.03
2023-02-02T06:16:33.088Z,5.03
2023-02-02T06:19:20.066Z,4.85
2023-02-02T06:22:07.104Z,5.00
2023-02-02T06:24:53.782Z,5.20
2023-02-02T06:27:39.936Z,4.28
2023-02-02T06:30:26.393Z,4.70
2023-02-02T06:33:12.664Z,5.00
2023-02-02T06:36:02.592Z,4.40
2023-02-02T06:38:53.098Z,5.20
2023-02-02T06:41:40.587Z,5.20
2023-02-02T06:44:27.651Z,4.68
2023-02-02T06:47:14.040Z,5.50
2023-02-02T06:49:59.980Z,4.97
2023-02-02T06:52:50.221Z,5.10
2023-02-02T06:55:36.394Z,5.32
2023-02-02T06:58:23.017Z,5.32
2023-02-02T07:01:10.338Z,5.50
2023-02-02T07:03:56.696Z,5.53
2023-02-02T07:06:43.127Z,4.88
2023-02-02T07:09:29.398Z,5.28
2023-02-02T07:12:15.511Z,4.80
2023-02-02T07:15:01.755Z,5.32
2023-02-02T07:17:48.014Z,5.40
2023-02-02T07:20:34.463Z,5.10
2023-02-02T07:23:20.838Z,4.82
2023-02-02T07:26:08.509Z,4.45
2023-02-02T07:28:54.911Z,4.95
2023-02-02T07:31:41.733Z,4.38
2023-02-02T07:34:27.671Z,4.63
2023-02-02T07:37:13.911Z,4.55
2023-02-02T07:40:00.181Z,4.55
2023-02-02T07:42:49.960Z,4.55
2023-02-02T07:45:36.549Z,4.47
2023-02-02T07:48:23.668Z,4.68
2023-02-02T07:51:12.213Z,4.40
2023-02-02T07:54:00.211Z,4.60
2023-02-02T07:56:46.661Z,4.25
2023-02-02T07:59:33.381Z,4.30
2023-02-02T08:02:19.477Z,4.63
2023-02-02T08:05:07.590Z,4.80
2023-02-02T08:07:53.757Z,5.28
2023-02-02T08:10:39.891Z,4.93
2023-02-02T08:13:26.550Z,4.80
2023-02-02T08:16:13.814Z,5.00
2023-02-02T08:19:00.081Z,5.00
2023-02-02T08:21:46.663Z,5.20
2023-02-02T08:24:32.580Z,4.65
2023-02-02T08:27:18.864Z,5.00
2023-02-02T08:30:05.345Z,4.82
2023-02-02T08:32:51.558Z,5.22
2023-02-02T08:35:44.051Z,5.25
2023-02-02T08:38:30.397Z,4.70
2023-02-02T08:41:18.095Z,4.60
2023-02-02T08:44:11.674Z,5.30
2023-02-02T08:46:57.861Z,5.18
2023-02-02T08:49:45.153Z,5.30
2023-02-02T08:52:31.560Z,4.78
2023-02-02T08:55:17.766Z,5.88
2023-02-02T08:58:03.730Z,5.40
2023-02-02T09:00:50.680Z,4.72
2023-02-02T09:03:40.210Z,5.25
2023-02-02T09:06:44.959Z,4.43
2023-02-02T09:09:31.067Z,5.13
2023-02-02T09:12:17.692Z,4.72
2023-02-02T09:15:03.859Z,4.85
2023-02-02T09:17:49.869Z,5.00
2023-02-02T09:20:36.088Z,4.53
2023-02-02T09:23:22.497Z,4.53
2023-02-02T09:26:11.622Z,4.43
2023-02-02T09:28:58.799Z,5.00
2023-02-02T09:31:45.073Z,4.22
2023-02-02T09:34:30.981Z,4.07
2023-02-02T09:37:17.044Z,3.90
2023-02-02T09:40:03.305Z,4.25
2023-02-02T09:43:01.897Z,4.53
2023-02-02T09:45:50.991Z,4.65
2023-02-02T09:49:03.504Z,4.78
2023-02-02T09:51:55.358Z,5.22
2023-02-02T09:54:47.342Z,5.50
2023-02-02T09:57:48.304Z,5.57
2023-02-02T10:00:46.274Z,6.28
2023-02-02T10:03:44.765Z,6.05
2023-02-02T10:06:38.798Z,6.15
2023-02-02T10:09:44.462Z,6.03
2023-02-02T10:12:47.255Z,5.55
2023-02-02T10:15:33.612Z,6.13
2023-02-02T10:18:31.083Z,6.10
2023-02-02T10:21:26.508Z,5.57
2023-02-02T10:24:39.462Z,6.53
2023-02-02T10:27:35.714Z,6.22
2023-02-02T10:30:27.533Z,5.63
2023-02-02T10:33:33.930Z,5.75
2023-02-02T10:36:26.166Z,6.68
2023-02-02T10:39:18.446Z,6.15
2023-02-02T10:42:05.076Z,5.93
2023-02-02T10:44:50.990Z,5.85
2023-02-02T10:47:38.124Z,5.53
2023-02-02T10:50:26.053Z,4.63
2023-02-02T10:53:14.759Z,4.70
2023-02-02T10:56:04.904Z,4.97
2023-02-02T10:59:03.322Z,4.85
2023-02-02T11:01:50.199Z,5.05
2023-02-02T11:04:55.505Z,4.70
2023-02-02T11:07:41.812Z,4.95
2023-02-02T11:10:28.295Z,4.75
2023-02-02T11:13:22.157Z,4.38
2023-02-02T11:16:18.060Z,5.03
2023-02-02T11:19:22.603Z,4.28
2023-02-02T11:22:24.098Z,4.30
2023-02-02T11:25:42.549Z,4.07
2023-02-02T11:28:31.170Z,3.92
2023-02-02T11:31:34.134Z,3.13
2023-02-02T11:34:20.800Z,3.05
2023-02-02T11:37:13.635Z,3.50
2023-02-02T11:40:18.668Z,2.97
2023-02-02T11:43:06.962Z,2.90
2023-02-02T11:46:02.592Z,3.00
2023-02-02T11:48:50.840Z,3.38
2023-02-02T11:51:37.651Z,3.10
2023-02-02T11:54:33.051Z,3.67
2023-02-02T11:57:21.865Z,3.67
2023-02-02T12:00:16.982Z,3.28
2023-02-02T12:03:03.527Z,3.45
2023-02-02T12:05:50.376Z,2.90
2023-02-02T12:08:37.605Z,3.20
2023-02-02T12:11:35.186Z,2.78
2023-02-02T12:14:44.812Z,3.15
2023-02-02T12:17:38.904Z,2.80
2023-02-02T12:20:31.346Z,2.63
2023-02-02T12:23:32.608Z,3.10
2023-02-02T12:26:22.750Z,3.05
2023-02-02T12:29:14.762Z,2.75
2023-02-02T12:32:04.207Z,2.83
2023-02-02T12:34:53.414Z,3.00
2023-02-02T12:37:39.709Z,2.85
2023-02-02T12:40:31.888Z,3.08
2023-02-02T12:43:27.649Z,2.90
2023-02-02T12:46:17.278Z,2.67
2023-02-02T12:49:14.171Z,2.50
2023-02-02T12:52:03.298Z,2.55
2023-02-02T12:54:57.440Z,2.50
2023-02-02T12:57:51.509Z,2.17
2023-02-02T13:00:39.740Z,1.63
2023-02-02T13:03:32.837Z,1.50
2023-02-02T13:06:34.614Z,1.65
2023-02-02T13:09:30.055Z,1.42
2023-02-02T13:12:18.724Z,1.40
2023-02-02T13:15:07.854Z,1.70
2023-02-02T13:17:54.015Z,1.50
2023-02-02T13:20:43.401Z,1.42
2023-02-02T13:23:32.221Z,1.23
2023-02-02T13:26:22.708Z,1.48
2023-02-02T13:29:20.522Z,1.50
2023-02-02T13:32:25.284Z,1.85
2023-02-02T13:35:19.867Z,1.42
2023-02-02T13:38:25.082Z,1.40
2023-02-02T13:41:17.073Z,1.75
2023-02-02T13:44:20.657Z,1.13
2023-02-02T13:47:12.476Z,1.23
2023-02-02T13:50:05.760Z,1.20
2023-02-02T13:53:01.212Z,1.15
2023-02-02T13:55:56.014Z,1.30
2023-02-02T13:58:48.319Z,1.10
2023-02-02T14:01:34.745Z,1.40
2023-02-02T14:04:22.758Z,1.25
2023-02-02T14:07:10.804Z,1.60
2023-02-02T14:09:57.129Z,1.50
2023-02-02T14:12:43.234Z,1.30
2023-02-02T14:15:40.239Z,1.20
2023-02-02T14:18:46.969Z,1.30
2023-02-02T14:21:36.120Z,1.38
2023-02-02T14:24:29.636Z,1.70
2023-02-02T14:27:16.070Z,1.55
2023-02-02T14:30:02.278Z,1.40
2023-02-02T14:32:48.707Z,1.40
2023-02-02T14:35:35.230Z,1.48
2023-02-02T14:38:31.918Z,1.50
2023-02-02T14:41:40.949Z,1.30
2023-02-02T14:44:31.133Z,1.35
2023-02-02T14:47:37.239Z,1.50
2023-02-02T14:50:37.555Z,1.60
2023-02-02T14:53:29.360Z,1.27
2023-02-02T14:56:16.129Z,1.40
2023-02-02T14:59:03.220Z,1.25
2023-02-02T15:02:10.270Z,1.60
2023-02-02T15:05:16.081Z,1.65
2023-02-02T15:08:23.300Z,1.40
2023-02-02T15:11:28.855Z,1.75
2023-02-02T15:14:16.953Z,1.60
2023-02-02T15:17:08.931Z,1.50
2023-02-02T15:20:06.410Z,1.50
2023-02-02T15:23:11.173Z,1.35
2023-02-02T15:26:14.377Z,1.17
2023-02-02T15:29:06.684Z,1.20
2023-02-02T15:31:55.106Z,1.15
2023-02-02T15:34:43.486Z,1.23
2023-02-02T15:37:40.407Z,0.90
2023-02-02T15:40:27.017Z,1.17
2023-02-02T15:43:14.137Z,1.15
2023-02-02T15:46:05.504Z,1.45
2023-02-02T15:49:12.576Z,1.10
2023-02-02T15:52:02.267Z,1.00
2023-02-02T15:54:53.524Z,1.20
2023-02-02T15:57:40.634Z,1.30
2023-02-02T16:00:30.950Z,1.30
2023-02-02T16:03:24.352Z,1.15
2023-02-02T16:06:10.660Z,1.25
2023-02-02T16:08:57.128Z,1.15
2023-02-02T16:11:43.563Z,1.13
2023-02-02T16:14:31.121Z,1.08
2023-02-02T16:17:21.616Z,1.25
2023-02-02T16:20:12.930Z,1.02
2023-02-02T16:23:04.679Z,1.00
2023-02-02T16:25:52.387Z,1.30
2023-02-02T16:28:38.985Z,1.38
2023-02-02T16:31:26.007Z,0.90
2023-02-02T16:34:16.996Z,1.50
2023-02-02T16:37:12.443Z,1.23
2023-02-02T16:40:16.122Z,1.00
2023-02-02T16:43:06.483Z,1.30
2023-02-02T16:45:56.037Z,1.23
2023-02-02T16:48:47.279Z,1.15
2023-02-02T16:51:36.367Z,1.00
2023-02-02T16:54:23.899Z,1.02
2023-02-02T16:57:15.725Z,0.90
2023-02-02T17:00:03.347Z,0.98
2023-02-02T17:02:51.193Z,0.90
2023-02-02T17:05:58.567Z,1.10
2023-02-02T17:08:44.846Z,1.55
2023-02-02T17:11:31.061Z,1.50
2023-02-02T17:14:20.162Z,1.10
2023-02-02T17:17:08.109Z,1.17
2023-02-02T17:19:54.378Z,1.02
2023-02-02T17:22:42.311Z,1.02
2023-02-02T17:25:30.363Z,1.08
2023-02-02T17:28:20.698Z,1.00
2023-02-02T17:31:08.649Z,0.75
2023-02-02T17:33:54.703Z,1.20
2023-02-02T17:36:40.955Z,1.05
2023-02-02T17:39:27.158Z,1.15
2023-02-02T17:42:31.673Z,0.95
2023-02-02T17:45:19.235Z,0.90
2023-02-02T17:48:06.020Z,1.20
2023-02-02T17:50:52.424Z,1.13
2023-02-02T17:53:38.826Z,0.90
2023-02-02T17:56:25.316Z,0.68
2023-02-02T17:59:12.408Z,0.75
2023-02-02T18:01:58.747Z,1.17
2023-02-02T18:04:45.810Z,0.80
2023-02-02T18:07:32.220Z,0.73
2023-02-02T18:10:19.550Z,0.70
2023-02-02T18:13:05.932Z,0.70
2023-02-02T18:15:52.973Z,0.93
2023-02-02T18:18:39.607Z,0.80
2023-02-02T18:21:29.950Z,0.50
2023-02-02T18:24:16.460Z,0.77
2023-02-02T18:27:02.863Z,0.50
2023-02-02T18:29:48.900Z,0.70
2023-02-02T18:32:38.775Z,0.80
2023-02-02T18:35:25.744Z,0.75
2023-02-02T18:38:13.224Z,0.55
2023-02-02T18:40:59.425Z,0.80
2023-02-02T18:43:45.838Z,0.60
2023-02-02T18:46:33.973Z,0.50
2023-02-02T18:49:20.879Z,0.50
2023-02-02T18:52:07.399Z,0.60
2023-02-02T18:54:53.835Z,0.50
2023-02-02T18:57:39.844Z,0.57
2023-02-02T19:00:26.041Z,0.55
2023-02-02T19:03:12.060Z,0.43
2023-02-02T19:06:16.777Z,0.60
2023-02-02T19:09:03.214Z,0.40
2023-02-02T19:11:50.619Z,0.60
2023-02-02T19:14:38.655Z,0.63
2023-02-02T19:17:25.014Z,0.70
2023-02-02T19:20:32.518Z,0.35
2023-02-02T19:23:20.494Z,0.40
2023-02-02T19:26:18.475Z,0.77
2023-02-02T19:29:11.709Z,0.52
2023-02-02T19:32:03.084Z,0.70
2023-02-02T19:35:01.622Z,0.60
2023-02-02T19:37:48.589Z,0.60
2023-02-02T19:40:34.968Z,0.70
2023-02-02T19:43:24.795Z,0.70
2023-02-02T19:46:16.319Z,0.73
2023-02-02T19:49:11.776Z,0.60
2023-02-02T19:52:01.491Z,0.70
2023-02-02T19:54:50.640Z,0.60
2023-02-02T19:57:39.216Z,0.80
2023-02-02T20:00:27.283Z,0.60
2023-02-02T20:03:16.718Z,0.50
2023-02-02T20:06:05.594Z,0.70
2023-02-02T20:08:54.983Z,0.65
2023-02-02T20:11:42.203Z,0.52
2023-02-02T20:14:33.353Z,0.60
2023-02-02T20:17:35.819Z,0.60
2023-02-02T20:20:26.152Z,0.68
2023-02-02T20:23:18.022Z,0.70
2023-02-02T20:26:08.526Z,0.70
2023-02-02T20:28:57.124Z,0.70
2023-02-02T20:31:43.873Z,0.50
2023-02-02T20:34:31.048Z,0.75
2023-02-02T20:37:23.026Z,0.60
2023-02-02T20:40:24.575Z,0.60
2023-02-02T20:43:11.162Z,0.52
2023-02-02T20:45:57.445Z,0.47
2023-02-02T20:48:46.578Z,0.40
2023-02-02T20:51:32.560Z,0.40
2023-02-02T20:54:18.738Z,0.60
2023-02-02T20:57:05.348Z,0.55
2023-02-02T20:59:57.536Z,0.68
2023-02-02T21:02:43.675Z,0.32
2023-02-02T21:05:30.149Z,0.50
2023-02-02T21:08:16.507Z,0.55
2023-02-02T21:11:02.899Z,0.50
2023-02-02T21:13:50.228Z,0.90
2023-02-02T21:16:36.696Z,0.70
2023-02-02T21:19:23.004Z,0.80
2023-02-02T21:22:09.318Z,0.55
2023-02-02T21:24:55.372Z,0.70
2023-02-02T21:27:41.546Z,0.63
2023-02-02T21:30:28.404Z,0.60
2023-02-02T21:33:14.729Z,0.70
2023-02-02T21:36:02.834Z,0.70
2023-02-02T21:38:49.095Z,0.73
2023-02-02T21:41:35.057Z,0.80
2023-02-02T21:44:22.611Z,0.63
2023-02-02T21:47:27.191Z,0.80
2023-02-02T21:50:18.056Z,1.00
2023-02-02T21:53:10.710Z,0.90
2023-02-02T21:55:58.659Z,1.00
2023-02-02T21:58:46.134Z,0.85
2023-02-02T22:01:38.321Z,1.00
2023-02-02T22:04:31.647Z,1.08
2023-02-02T22:10:14.255Z,0.80
2023-02-02T22:13:01.351Z,1.10
2023-02-02T22:15:48.352Z,1.20
2023-02-02T22:18:36.579Z,1.02
2023-02-02T22:21:23.093Z,1.15
2023-02-02T22:24:12.711Z,1.48
2023-02-02T22:26:59.738Z,1.02
2023-02-02T22:29:46.225Z,1.30
2023-02-02T22:32:32.245Z,1.00
2023-02-02T22:35:18.779Z,1.10
2023-02-02T22:38:05.747Z,1.10
2023-02-02T22:40:52.826Z,1.00
2023-02-02T22:43:39.368Z,1.10
2023-02-02T22:46:25.451Z,0.93
2023-02-02T22:49:11.619Z,1.17
2023-02-02T22:51:58.088Z,0.88
2023-02-02T22:54:44.359Z,1.00
2023-02-02T22:57:30.455Z,0.90
2023-02-02T23:00:18.193Z,0.85
2023-02-02T23:03:04.467Z,1.00
2023-02-02T23:05:51.060Z,1.20
2023-02-02T23:08:37.228Z,0.93
2023-02-02T23:11:23.568Z,0.90
2023-02-02T23:14:09.735Z,1.15
2023-02-02T23:16:55.583Z,0.80
2023-02-02T23:19:41.733Z,0.90
2023-02-02T23:22:28.184Z,1.02
2023-02-02T23:25:15.212Z,0.80
2023-02-02T23:28:01.304Z,0.93
2023-02-02T23:30:47.702Z,0.85
2023-02-02T23:33:34.262Z,0.93
2023-02-02T23:36:20.531Z,0.70
2023-02-02T23:39:06.821Z,0.82
2023-02-02T23:41:53.020Z,0.80
2023-02-02T23:44:39.132Z,0.50
2023-02-02T23:47:25.415Z,0.60
2023-02-02T23:50:12.113Z,0.70
2023-02-02T23:52:58.693Z,0.95
2023-02-02T23:55:45.874Z,0.50
2023-02-02T23:58:32.030Z,0.60
